createdAt,value
2022-10-13T00:00:46.748Z,2.03
2022-10-13T00:03:13.252Z,1.03
2022-10-13T00:05:42.116Z,1.20
2022-10-13T00:08:09.556Z,2.83
2022-10-13T00:10:38.550Z,0.93
2022-10-13T00:13:06.315Z,0.97
2022-10-13T00:15:33.340Z,2.17
2022-10-13T00:17:59.829Z,1.67
2022-10-13T00:20:26.359Z,2.77
2022-10-13T00:22:52.793Z,1.43
2022-10-13T00:25:19.315Z,1.70
2022-10-13T00:27:45.732Z,1.87
2022-10-13T00:30:12.251Z,1.73
2022-10-13T00:32:38.931Z,1.60
2022-10-13T00:35:05.655Z,1.53
2022-10-13T00:37:32.135Z,1.30
2022-10-13T00:39:59.001Z,1.30
2022-10-13T00:42:28.340Z,1.33
2022-10-13T00:45:02.037Z,1.03
2022-10-13T00:47:32.891Z,2.10
2022-10-13T00:49:59.756Z,1.20
2022-10-13T00:52:26.949Z,1.37
2022-10-13T00:54:55.563Z,1.17
2022-10-13T00:57:22.722Z,1.30
2022-10-13T00:59:49.340Z,1.30
2022-10-13T01:02:16.144Z,1.40
2022-10-13T01:04:47.258Z,1.30
2022-10-13T01:07:17.426Z,1.77
2022-10-13T01:09:47.248Z,1.27
2022-10-13T01:12:29.468Z,2.37
2022-10-13T01:15:04.055Z,1.67
2022-10-13T01:17:38.943Z,1.97
2022-10-13T01:20:43.553Z,1.43
2022-10-13T01:23:53.125Z,2.13
2022-10-13T01:27:04.121Z,2.13
2022-10-13T01:29:50.923Z,1.20
2022-10-13T01:32:29.583Z,1.40
2022-10-13T01:35:12.220Z,1.20
2022-10-13T01:37:39.959Z,1.83
2022-10-13T01:40:06.590Z,1.90
2022-10-13T01:43:02.154Z,1.50
2022-10-13T01:45:32.382Z,1.90
2022-10-13T01:48:00.917Z,3.00
2022-10-13T01:50:28.099Z,1.47
2022-10-13T01:52:55.150Z,1.33
2022-10-13T01:55:21.583Z,1.73
2022-10-13T01:57:48.081Z,1.97
2022-10-13T02:00:17.067Z,2.20
2022-10-13T02:02:52.790Z,2.13
2022-10-13T02:05:29.999Z,2.67
2022-10-13T02:08:04.628Z,1.30
2022-10-13T02:10:44.796Z,2.90
2022-10-13T02:13:13.347Z,1.53
2022-10-13T02:15:43.456Z,2.93
2022-10-13T02:18:12.936Z,1.80
2022-10-13T02:20:41.374Z,1.93
2022-10-13T02:23:11.953Z,1.93
2022-10-13T02:25:47.603Z,1.73
2022-10-13T02:28:15.274Z,2.47
2022-10-13T02:30:42.167Z,1.73
2022-10-13T02:33:09.052Z,1.93
2022-10-13T02:35:35.695Z,2.67
2022-10-13T02:38:02.257Z,2.60
2022-10-13T02:40:28.833Z,1.90
2022-10-13T02:42:55.544Z,1.20
2022-10-13T02:45:22.300Z,1.00
2022-10-13T02:47:48.764Z,1.70
2022-10-13T02:50:15.325Z,2.03
2022-10-13T02:52:41.768Z,3.53
2022-10-13T02:55:08.531Z,2.20
2022-10-13T02:57:35.321Z,2.07
2022-10-13T03:00:01.945Z,2.40
2022-10-13T03:02:28.521Z,2.13
2022-10-13T03:04:55.013Z,2.83
2022-10-13T03:07:21.659Z,2.13
2022-10-13T03:09:48.163Z,2.10
2022-10-13T03:12:14.778Z,2.63
2022-10-13T03:14:41.303Z,2.13
2022-10-13T03:17:12.459Z,2.33
2022-10-13T03:19:39.881Z,1.90
2022-10-13T03:22:06.468Z,1.53
2022-10-13T03:24:32.938Z,1.80
2022-10-13T03:26:59.397Z,1.60
2022-10-13T03:29:25.904Z,1.83
2022-10-13T03:31:52.418Z,2.30
2022-10-13T03:34:20.295Z,1.70
2022-10-13T03:36:47.069Z,2.63
2022-10-13T03:39:13.788Z,2.10
2022-10-13T03:41:40.290Z,1.83
2022-10-13T03:44:07.576Z,1.57
2022-10-13T03:46:35.095Z,2.80
2022-10-13T03:49:02.047Z,1.57
2022-10-13T03:51:28.756Z,2.03
2022-10-13T03:53:55.212Z,1.63
2022-10-13T03:56:24.086Z,1.60
2022-10-13T03:58:54.270Z,2.53
2022-10-13T04:01:23.218Z,1.87
2022-10-13T04:03:51.942Z,2.33
2022-10-13T04:06:18.495Z,1.77
2022-10-13T04:08:45.056Z,1.30
2022-10-13T04:11:14.181Z,1.83
2022-10-13T04:13:41.581Z,2.60
2022-10-13T04:16:17.463Z,1.83
2022-10-13T04:18:45.133Z,1.73
2022-10-13T04:21:14.339Z,1.63
2022-10-13T04:23:40.803Z,2.10
2022-10-13T04:26:07.364Z,1.80
2022-10-13T04:28:35.926Z,2.07
2022-10-13T04:31:03.418Z,2.27
2022-10-13T04:33:30.112Z,1.77
2022-10-13T04:35:57.372Z,1.93
2022-10-13T04:38:23.913Z,1.83
2022-10-13T04:40:50.487Z,1.70
2022-10-13T04:43:17.373Z,2.20
2022-10-13T04:45:43.877Z,2.07
2022-10-13T04:48:10.365Z,2.10
2022-10-13T04:50:36.796Z,1.73
2022-10-13T04:53:03.494Z,2.53
2022-10-13T04:55:30.089Z,3.03
2022-10-13T04:57:56.548Z,2.23
2022-10-13T05:00:23.064Z,1.40
2022-10-13T05:02:49.819Z,2.40
2022-10-13T05:05:16.366Z,1.93
2022-10-13T05:07:42.816Z,2.30
2022-10-13T05:10:09.648Z,2.03
2022-10-13T05:12:36.186Z,1.73
2022-10-13T05:15:03.673Z,1.60
2022-10-13T05:17:35.304Z,1.83
2022-10-13T05:20:02.454Z,2.10
2022-10-13T05:22:28.914Z,3.37
2022-10-13T05:24:55.318Z,2.27
2022-10-13T05:27:23.145Z,3.27
2022-10-13T05:29:49.652Z,1.53
2022-10-13T05:32:16.219Z,1.73
2022-10-13T05:34:42.860Z,1.40
2022-10-13T05:37:09.347Z,1.93
2022-10-13T05:39:35.873Z,2.13
2022-10-13T05:42:02.404Z,2.60
2022-10-13T05:44:29.832Z,2.67
2022-10-13T05:46:56.906Z,2.27
2022-10-13T05:49:23.391Z,3.20
2022-10-13T05:51:53.391Z,2.57
2022-10-13T05:54:24.387Z,3.07
2022-10-13T05:56:54.390Z,2.43
2022-10-13T05:59:26.760Z,1.90
2022-10-13T06:01:53.869Z,1.63
2022-10-13T06:04:24.241Z,2.30
2022-10-13T06:06:50.964Z,3.20
2022-10-13T06:09:17.698Z,2.47
2022-10-13T06:11:44.244Z,2.13
2022-10-13T06:14:10.645Z,3.33
2022-10-13T06:16:37.112Z,1.70
2022-10-13T06:19:05.089Z,2.72
2022-10-13T06:21:31.823Z,2.97
2022-10-13T06:23:58.333Z,3.03
2022-10-13T06:26:24.800Z,2.05
2022-10-13T06:28:55.614Z,2.47
2022-10-13T06:31:24.962Z,2.28
2022-10-13T06:33:51.502Z,2.13
2022-10-13T06:36:18.154Z,2.00
2022-10-13T06:38:44.636Z,1.55
2022-10-13T06:41:12.772Z,2.25
2022-10-13T06:43:40.563Z,2.67
2022-10-13T06:46:07.866Z,2.03
2022-10-13T06:48:34.749Z,2.87
2022-10-13T06:51:09.453Z,2.37
2022-10-13T06:53:35.872Z,1.73
2022-10-13T06:56:04.720Z,2.67
2022-10-13T06:58:31.339Z,2.80
2022-10-13T07:00:58.042Z,2.65
2022-10-13T07:03:25.294Z,2.92
2022-10-13T07:05:52.111Z,3.30
2022-10-13T07:08:19.076Z,2.90
2022-10-13T07:10:45.755Z,2.72
2022-10-13T07:13:12.192Z,2.28
2022-10-13T07:15:39.682Z,2.78
2022-10-13T07:18:08.451Z,2.22
2022-10-13T07:20:35.315Z,2.92
2022-10-13T07:23:01.916Z,2.45
2022-10-13T07:25:28.918Z,2.30
2022-10-13T07:27:55.643Z,2.72
2022-10-13T07:30:22.173Z,3.42
2022-10-13T07:32:48.843Z,2.95
2022-10-13T07:35:15.572Z,3.25
2022-10-13T07:37:42.085Z,2.88
2022-10-13T07:40:09.055Z,2.83
2022-10-13T07:42:35.564Z,2.28
2022-10-13T07:45:02.024Z,4.28
2022-10-13T07:47:28.935Z,2.55
2022-10-13T07:49:55.794Z,2.78
2022-10-13T07:52:22.681Z,3.03
2022-10-13T07:54:50.382Z,3.15
2022-10-13T07:57:17.087Z,2.92
2022-10-13T07:59:43.615Z,3.58
2022-10-13T08:02:10.085Z,3.03
2022-10-13T08:04:37.032Z,3.20
2022-10-13T08:07:05.572Z,2.72
2022-10-13T08:09:40.443Z,2.42
2022-10-13T08:12:06.905Z,2.55
2022-10-13T08:14:33.901Z,3.83
2022-10-13T08:17:01.519Z,2.17
2022-10-13T08:19:28.536Z,2.47
2022-10-13T08:21:59.572Z,2.95
2022-10-13T08:24:27.609Z,2.05
2022-10-13T08:26:54.037Z,3.28
2022-10-13T08:29:22.521Z,2.97
2022-10-13T08:31:53.912Z,2.20
2022-10-13T08:34:21.546Z,2.05
2022-10-13T08:36:48.771Z,2.17
2022-10-13T08:39:15.150Z,3.35
2022-10-13T08:41:46.511Z,3.17
2022-10-13T08:45:05.859Z,3.25
2022-10-13T08:47:30.305Z,2.17
2022-10-13T08:50:01.516Z,3.20
2022-10-13T08:52:43.875Z,2.67
2022-10-13T08:55:33.407Z,2.58
2022-10-13T08:58:01.245Z,2.60
2022-10-13T09:00:29.596Z,2.50
2022-10-13T09:03:19.892Z,2.45
2022-10-13T09:06:09.484Z,2.38
2022-10-13T09:08:45.606Z,3.17
2022-10-13T09:11:13.150Z,2.70
2022-10-13T09:13:40.162Z,3.53
2022-10-13T09:16:07.424Z,3.30
2022-10-13T09:18:34.728Z,2.75
2022-10-13T09:21:18.327Z,3.22
2022-10-13T09:23:49.914Z,2.60
2022-10-13T09:26:24.864Z,2.20
2022-10-13T09:28:52.626Z,2.55
2022-10-13T09:31:27.798Z,2.67
2022-10-13T09:34:12.324Z,3.15
2022-10-13T09:36:38.805Z,2.80
2022-10-13T09:39:14.508Z,3.00
2022-10-13T09:41:42.701Z,2.65
2022-10-13T09:44:27.844Z,2.95
2022-10-13T09:47:04.222Z,2.60
2022-10-13T09:49:38.243Z,2.67
2022-10-13T09:52:16.820Z,2.70
2022-10-13T09:55:02.080Z,3.35
2022-10-13T09:57:48.349Z,3.17
2022-10-13T10:00:26.657Z,2.65
2022-10-13T10:03:11.655Z,2.50
2022-10-13T10:05:55.390Z,3.33
2022-10-13T10:08:50.928Z,2.78
2022-10-13T10:11:25.381Z,1.90
2022-10-13T10:13:55.918Z,2.30
2022-10-13T10:16:32.105Z,3.17
2022-10-13T10:19:20.660Z,3.05
2022-10-13T10:22:03.931Z,2.30
2022-10-13T10:24:38.806Z,2.70
2022-10-13T10:30:04.402Z,2.90
2022-10-13T10:32:40.863Z,2.45
2022-10-13T10:35:45.317Z,2.33
2022-10-13T10:38:32.414Z,2.13
2022-10-13T10:41:25.760Z,2.80
2022-10-13T10:44:00.885Z,2.50
2022-10-13T10:46:40.817Z,2.88
2022-10-13T10:49:33.849Z,2.63
2022-10-13T10:52:02.109Z,2.95
2022-10-13T10:54:49.071Z,2.70
2022-10-13T10:57:51.316Z,2.88
2022-10-13T11:00:21.981Z,2.88
2022-10-13T11:03:10.835Z,3.45
2022-10-13T11:06:15.100Z,2.42
2022-10-13T11:08:43.675Z,2.70
2022-10-13T11:11:24.759Z,2.40
2022-10-13T11:14:06.588Z,2.25
2022-10-13T11:16:55.465Z,2.80
2022-10-13T11:19:32.194Z,2.30
2022-10-13T11:21:58.753Z,2.35
2022-10-13T11:24:34.938Z,2.30
2022-10-13T11:27:07.593Z,2.03
2022-10-13T11:29:51.617Z,2.58
2022-10-13T11:32:36.175Z,2.55
2022-10-13T11:35:05.749Z,2.35
2022-10-13T11:38:05.590Z,2.40
2022-10-13T11:40:58.262Z,1.85
2022-10-13T11:43:32.813Z,1.58
2022-10-13T11:46:11.356Z,1.88
2022-10-13T11:49:18.417Z,2.40
2022-10-13T11:51:57.254Z,2.10
2022-10-13T11:54:32.421Z,1.90
2022-10-13T11:56:59.066Z,1.90
2022-10-13T11:59:33.531Z,1.88
2022-10-13T12:02:20.837Z,1.77
2022-10-13T12:05:00.769Z,2.35
2022-10-13T12:07:32.705Z,2.53
2022-10-13T12:09:59.402Z,2.40
2022-10-13T12:12:26.231Z,2.03
2022-10-13T12:14:54.914Z,1.80
2022-10-13T12:17:24.461Z,2.42
2022-10-13T12:19:51.309Z,1.63
2022-10-13T12:22:17.853Z,2.10
2022-10-13T12:25:00.105Z,2.47
2022-10-13T12:27:27.940Z,2.03
2022-10-13T12:29:54.533Z,1.70
2022-10-13T12:32:31.451Z,2.03
2022-10-13T12:35:19.710Z,2.25
2022-10-13T12:37:47.058Z,2.55
2022-10-13T12:40:15.897Z,1.45
2022-10-13T12:42:42.483Z,2.20
2022-10-13T12:45:20.125Z,1.77
2022-10-13T12:47:47.384Z,1.90
2022-10-13T12:50:40.653Z,1.92
2022-10-13T12:53:24.743Z,2.75
2022-10-13T12:55:58.670Z,1.85
2022-10-13T12:58:33.674Z,1.85
2022-10-13T13:01:21.507Z,1.90
2022-10-13T13:03:57.559Z,2.08
2022-10-13T13:06:29.675Z,1.58
2022-10-13T13:09:20.929Z,1.63
2022-10-13T13:11:49.090Z,1.75
2022-10-13T13:14:37.622Z,1.50
2022-10-13T13:20:29.564Z,1.40
2022-10-13T13:22:56.114Z,2.17
2022-10-13T13:25:23.122Z,2.10
2022-10-13T13:27:50.251Z,2.00
2022-10-13T13:30:19.311Z,1.58
2022-10-13T13:32:45.732Z,1.60
2022-10-13T13:35:12.656Z,1.45
2022-10-13T13:37:42.083Z,1.83
2022-10-13T13:40:15.397Z,1.40
2022-10-13T13:42:41.895Z,1.67
2022-10-13T13:45:12.857Z,1.95
2022-10-13T13:47:39.565Z,1.30
2022-10-13T13:50:13.912Z,1.20
2022-10-13T13:52:41.693Z,1.40
2022-10-13T13:55:08.741Z,1.42
2022-10-13T13:57:35.368Z,2.05
2022-10-13T14:00:02.018Z,1.73
2022-10-13T14:02:28.611Z,1.67
2022-10-13T14:04:55.274Z,1.65
2022-10-13T14:07:22.084Z,1.80
2022-10-13T14:09:48.753Z,1.45
2022-10-13T14:12:15.175Z,1.77
2022-10-13T14:14:41.614Z,1.38
2022-10-13T14:17:08.299Z,2.00
2022-10-13T14:19:34.808Z,1.50
2022-10-13T14:22:09.209Z,1.95
2022-10-13T14:24:35.978Z,1.42
2022-10-13T14:27:02.645Z,1.75
2022-10-13T14:29:29.085Z,1.58
2022-10-13T14:31:55.619Z,2.67
2022-10-13T14:34:22.165Z,2.17
2022-10-13T14:36:48.645Z,1.75
2022-10-13T14:39:15.286Z,2.08
2022-10-13T14:41:41.775Z,1.90
2022-10-13T14:44:11.499Z,2.53
2022-10-13T14:46:38.013Z,2.40
2022-10-13T14:49:04.501Z,1.35
2022-10-13T14:51:45.632Z,2.30
2022-10-13T14:54:12.102Z,1.40
2022-10-13T14:56:38.776Z,1.52
2022-10-13T14:59:07.034Z,1.77
2022-10-13T15:01:34.332Z,1.85
2022-10-13T15:04:01.847Z,2.38
2022-10-13T15:06:28.666Z,1.55
2022-10-13T15:08:55.420Z,1.75
2022-10-13T15:11:22.413Z,2.50
2022-10-13T15:13:48.930Z,1.77
2022-10-13T15:16:21.132Z,2.08
2022-10-13T15:18:48.182Z,1.52
2022-10-13T15:21:16.782Z,2.13
2022-10-13T15:23:43.776Z,1.63
2022-10-13T15:26:12.008Z,3.67
2022-10-13T15:28:40.744Z,2.40
2022-10-13T15:31:07.292Z,2.25
2022-10-13T15:33:33.774Z,1.48
2022-10-13T15:36:00.501Z,2.28
2022-10-13T15:38:27.117Z,2.00
2022-10-13T15:40:59.476Z,2.15
2022-10-13T15:43:25.981Z,1.70
2022-10-13T15:45:57.633Z,2.00
2022-10-13T15:48:24.241Z,1.92
2022-10-13T15:50:50.647Z,1.85
2022-10-13T15:53:17.395Z,2.10
2022-10-13T15:55:43.804Z,2.25
2022-10-13T15:58:13.676Z,1.85
2022-10-13T16:00:40.872Z,2.35
2022-10-13T16:03:07.669Z,2.70
2022-10-13T16:05:34.053Z,2.20
2022-10-13T16:08:00.435Z,3.47
2022-10-13T16:10:27.079Z,1.58
2022-10-13T16:12:54.902Z,2.25
2022-10-13T16:15:21.289Z,1.95
2022-10-13T16:17:47.735Z,1.95
2022-10-13T16:20:14.685Z,2.38
2022-10-13T16:22:41.120Z,1.83
2022-10-13T16:25:08.044Z,2.40
2022-10-13T16:27:34.437Z,2.58
2022-10-13T16:30:00.866Z,1.77
2022-10-13T16:32:27.259Z,2.25
2022-10-13T16:34:53.663Z,2.42
2022-10-13T16:37:20.622Z,2.40
2022-10-13T16:39:51.441Z,1.95
2022-10-13T16:42:18.503Z,2.97
2022-10-13T16:44:45.085Z,1.75
2022-10-13T16:47:15.941Z,2.47
2022-10-13T16:49:44.704Z,2.40
2022-10-13T16:52:11.131Z,2.35
2022-10-13T16:54:37.634Z,1.48
2022-10-13T16:57:04.159Z,1.98
2022-10-13T16:59:30.648Z,1.40
2022-10-13T17:01:57.867Z,2.17
2022-10-13T17:04:24.613Z,2.58
2022-10-13T17:06:51.333Z,2.00
2022-10-13T17:09:17.694Z,2.05
2022-10-13T17:11:44.125Z,2.60
2022-10-13T17:14:12.688Z,2.25
2022-10-13T17:16:39.145Z,2.83
2022-10-13T17:19:06.951Z,2.85
2022-10-13T17:21:33.756Z,2.78
2022-10-13T17:24:00.156Z,2.08
2022-10-13T17:26:26.836Z,2.53
2022-10-13T17:28:53.809Z,2.40
2022-10-13T17:31:22.516Z,2.17
2022-10-13T17:33:49.842Z,2.08
2022-10-13T17:36:20.458Z,2.42
2022-10-13T17:38:48.085Z,3.17
2022-10-13T17:41:15.103Z,1.90
2022-10-13T17:43:41.677Z,2.38
2022-10-13T17:46:34.921Z,2.53
2022-10-13T17:48:59.424Z,2.38
2022-10-13T17:51:26.147Z,3.50
2022-10-13T17:53:55.052Z,3.38
2022-10-13T17:56:23.762Z,2.20
2022-10-13T17:58:50.965Z,2.90
2022-10-13T18:01:23.094Z,2.35
2022-10-13T18:03:51.811Z,2.75
2022-10-13T18:06:20.842Z,2.25
2022-10-13T18:08:47.298Z,3.08
2022-10-13T18:11:15.654Z,3.33
2022-10-13T18:13:43.322Z,3.13
2022-10-13T18:16:12.669Z,2.95
2022-10-13T18:18:39.127Z,3.35
2022-10-13T18:21:07.152Z,3.47
2022-10-13T18:23:37.430Z,3.20
2022-10-13T18:26:09.703Z,2.63
2022-10-13T18:28:40.112Z,3.38
2022-10-13T18:31:23.038Z,2.97
2022-10-13T18:33:50.000Z,2.08
2022-10-13T18:36:24.541Z,3.30
2022-10-13T18:38:52.123Z,1.77
2022-10-13T18:41:21.123Z,3.60
2022-10-13T18:43:47.679Z,2.88
2022-10-13T18:46:14.243Z,2.63
2022-10-13T18:48:40.997Z,3.78
2022-10-13T18:51:09.359Z,3.88
2022-10-13T18:53:38.563Z,3.13
2022-10-13T18:56:07.024Z,3.42
2022-10-13T18:58:33.939Z,3.78
2022-10-13T19:01:06.210Z,2.80
2022-10-13T19:03:34.771Z,3.60
2022-10-13T19:06:06.351Z,3.85
2022-10-13T19:08:33.055Z,3.03
2022-10-13T19:10:59.506Z,3.38
2022-10-13T19:13:26.589Z,3.17
2022-10-13T19:16:02.826Z,4.13
2022-10-13T19:18:29.523Z,3.90
2022-10-13T19:20:56.008Z,3.55
2022-10-13T19:23:22.481Z,2.05
2022-10-13T19:25:49.230Z,3.38
2022-10-13T19:28:15.834Z,2.80
2022-10-13T19:30:42.734Z,4.32
2022-10-13T19:33:10.120Z,3.88
2022-10-13T19:35:52.732Z,3.70
2022-10-13T19:38:19.298Z,3.05
2022-10-13T19:40:49.596Z,2.47
2022-10-13T19:43:19.741Z,3.25
2022-10-13T19:45:57.421Z,3.67
2022-10-13T19:48:26.447Z,4.03
2022-10-13T19:50:53.032Z,2.38
2022-10-13T19:53:19.699Z,3.28
2022-10-13T19:55:47.641Z,2.85
2022-10-13T19:58:16.153Z,3.20
2022-10-13T20:00:44.642Z,4.95
2022-10-13T20:03:12.170Z,3.08
2022-10-13T20:05:40.430Z,3.88
2022-10-13T20:08:08.226Z,3.53
2022-10-13T20:10:39.086Z,2.22
2022-10-13T20:13:06.959Z,3.05
2022-10-13T20:15:33.966Z,2.53
2022-10-13T20:18:09.243Z,4.63
2022-10-13T20:20:36.348Z,3.37
2022-10-13T20:23:02.821Z,3.13
2022-10-13T20:25:29.940Z,4.07
2022-10-13T20:27:56.474Z,3.55
2022-10-13T20:30:23.131Z,4.38
2022-10-13T20:32:49.576Z,3.15
2022-10-13T20:35:16.120Z,2.40
2022-10-13T20:37:42.510Z,3.63
2022-10-13T20:40:09.318Z,3.30
2022-10-13T20:42:37.036Z,2.57
2022-10-13T20:45:04.401Z,3.08
2022-10-13T20:47:30.858Z,3.20
2022-10-13T20:49:57.340Z,2.78
2022-10-13T20:52:23.865Z,3.13
2022-10-13T20:54:50.273Z,2.77
2022-10-13T20:57:16.695Z,3.67
2022-10-13T20:59:43.098Z,4.27
2022-10-13T21:02:12.967Z,4.67
2022-10-13T21:04:39.543Z,4.30
2022-10-13T21:07:06.023Z,4.23
2022-10-13T21:09:32.613Z,3.87
2022-10-13T21:11:59.056Z,2.72
2022-10-13T21:14:25.544Z,4.43
2022-10-13T21:16:52.099Z,4.00
2022-10-13T21:19:18.600Z,3.57
2022-10-13T21:21:45.040Z,4.33
2022-10-13T21:24:11.477Z,4.00
2022-10-13T21:26:38.083Z,4.67
2022-10-13T21:29:05.253Z,5.50
2022-10-13T21:31:31.860Z,4.53
2022-10-13T21:33:58.433Z,3.80
2022-10-13T21:36:30.653Z,5.13
2022-10-13T21:38:59.814Z,5.10
2022-10-13T21:41:26.763Z,4.13
2022-10-13T21:43:54.028Z,5.07
2022-10-13T21:46:25.448Z,3.67
2022-10-13T21:48:56.502Z,5.03
2022-10-13T21:51:34.631Z,3.28
2022-10-13T21:54:05.961Z,3.83
2022-10-13T21:56:33.366Z,5.60
2022-10-13T21:59:00.358Z,3.73
2022-10-13T22:01:27.268Z,6.30
2022-10-13T22:03:56.244Z,3.83
2022-10-13T22:06:22.803Z,3.77
2022-10-13T22:08:50.829Z,5.57
2022-10-13T22:11:17.997Z,5.63
2022-10-13T22:13:44.459Z,5.68
2022-10-13T22:16:16.921Z,4.00
2022-10-13T22:18:43.672Z,4.83
2022-10-13T22:21:18.526Z,4.83
2022-10-13T22:23:45.499Z,5.30
2022-10-13T22:26:12.851Z,4.45
2022-10-13T22:28:42.516Z,5.33
2022-10-13T22:31:11.987Z,5.07
2022-10-13T22:33:39.944Z,5.40
2022-10-13T22:36:08.425Z,4.65
2022-10-13T22:38:35.506Z,3.60
2022-10-13T22:41:03.759Z,3.07
2022-10-13T22:43:30.218Z,4.43
2022-10-13T22:45:56.727Z,5.43
2022-10-13T22:48:23.236Z,3.83
2022-10-13T22:50:49.624Z,3.63
2022-10-13T22:53:16.096Z,4.70
2022-10-13T22:55:42.652Z,4.87
2022-10-13T22:58:12.254Z,4.10
2022-10-13T23:00:39.053Z,3.88
2022-10-13T23:03:06.257Z,5.63
2022-10-13T23:05:32.711Z,4.33
2022-10-13T23:07:59.183Z,4.53
2022-10-13T23:10:25.701Z,4.70
2022-10-13T23:12:52.146Z,4.73
2022-10-13T23:15:24.883Z,3.93
2022-10-13T23:17:52.005Z,4.70
2022-10-13T23:20:19.598Z,3.80
2022-10-13T23:22:46.245Z,2.40
2022-10-13T23:25:12.912Z,2.90
2022-10-13T23:27:39.667Z,4.67
2022-10-13T23:30:07.410Z,4.23
2022-10-13T23:32:34.855Z,4.33
2022-10-13T23:35:01.522Z,3.87
2022-10-13T23:37:27.941Z,4.67
2022-10-13T23:39:54.361Z,3.07
2022-10-13T23:42:20.738Z,3.40
2022-10-13T23:44:47.217Z,3.80
2022-10-13T23:47:13.779Z,3.30
2022-10-13T23:49:40.197Z,4.83
2022-10-13T23:52:10.791Z,4.17
2022-10-13T23:54:37.671Z,2.83
2022-10-13T23:57:04.198Z,4.57
2022-10-13T23:59:30.698Z,4.37
